Mar del Plata, Argentina

4:21 AM ART en Agosto 29, 2015 (GMT -0300)
Mar Del Plata International | | Change Station
CLOSE
Current Station
Aeropuerto
Location: Mar del Plata,
Altura: 69 ft
Estaciones meteorológicas cercanas

Alt 69 ft 37.93 °S, 57.57 °W | Updated 21 minutes ago

Scattered Clouds
Nubes dispersas
63 ° F
Sensación térmica 63 ° F
N
15
Viento Variable Viento desde Oeste

Hoy
Alta -- | Baja -- ° F
--% Posibilidad de precipitaciones
Ayer
Alta -- | Baja -- ° F
Precip. -- pul
7:16 AM 6:26 PM
Luna llena, 100% visible
Presión 29.74 pul
Visibilidad 6.2 Millas
Nubes Baja 3000 ft
Nubes dispersas 20000 ft
Punto de rocío 45 ° F
Humedad 52%
Precipitaciones 0.00 pul
Espesor de la nieve No disponible.
UV 0 de una escala de 12
Polen No disponible.
Calidad del aire No disponible.
Flu Activity No disponible.
METAR SAZM 290700Z 27013KT 9999 FEW030 SCT200 17/07 Q1007
Presión 29.74 pul
Visibilidad 6.2 Millas
Nubes Baja 3000 ft
Nubes dispersas 20000 ft
Punto de rocío 45 ° F
Humedad 52%
Precipitaciones 0.00 pul
Espesor de la nieve No disponible.
UV 0 de una escala de 12
Polen No disponible.
Calidad del aire No disponible.
Flu Activity No disponible.
METAR SAZM 290700Z 27013KT 9999 FEW030 SCT200 17/07 Q1007

10-Day Weather Forecast

×

Almanac

Astronomía

Aug. 29, 2015 Salida Puesta
Hora real
Crepúsculo civil
Crepúsculo náutico
Crepúsculo astronómico
Luna
Horas de luz
Horas de luz
Tomorrow will be .
, % of the Moon is Illuminated

Extremos de hoy

Máximos del país Bajas del país

Community

WunderPhotos

Upload Photos

1,850,633 ¡fotos cargadas!

WunderBlogs® & News

Nearby

Calidad del aire

  Calidad del aire Índice AQ Contaminante
Not available.

Grosos de nieve

Estación Profundido Altura

Actividad de terremotos

Ciudad Distance Mag. Tiempo y dato
Magnitud mínima muestra es 2,5.

Temperaturas de aguas costeras

Lugar Temperatura

Stations

Estaciones meteorológicas cercanas

Ubicación de la estación Temp. Vientos helados Punto de rocío Humedad Viento Precip. Alt Actualizado Tipo